Union Hill, IL

11:33 PM CST on December 24, 2014 (GMT -0600)
Greater Kankakee | Change Station
CLOSE
Current Station
Airport
Location: Kankakee,
Elevation: 630 ft
Nearby Weather Stations

Elev 630 ft 41.07 °N, 87.85 °W | Updated 18 minutes ago

Overcast
Overcast
36 °F
Feels Like 28 °F
N
10
Wind Variable Wind from West

Today
High -- | Low -- °F
--% Chance of Precip.
Yesterday
High -- | Low -- °F
Precip. -- in
7:15 AM 4:28 PM
Waxing Crescent, 13% visible
Pressure 29.69 in
Visibility 10.0 miles
Clouds Overcast 1600 ft
Windchill 28 °F
Dew Point 34 °F
Humidity 92%
Rainfall 0.68 in
Snow Depth Not available.
UV 0 out of 12
Pollen .10 out of 12
Air Quality Not available.
Flu Activity Not available.
METAR KIKK 250515Z AUTO 26009KT 10SM OVC016 02/01 A2969 RMK AO2 T00220010

More Conditions Fewer Conditions

Pressure 29.69 in
Visibility 10.0 miles
Clouds Overcast 1600 ft
Windchill 28 °F
Dew Point 34 °F
Humidity 92%
Rainfall 0.68 in
Snow Depth Not available.
UV 0 out of 12
Pollen .10 out of 12
Air Quality Not available.
Flu Activity Not available.
METAR KIKK 250515Z AUTO 26009KT 10SM OVC016 02/01 A2969 RMK AO2 T00220010

More Conditions Fewer Conditions

10-Day Weather Forecast

Almanac

Astronomy

Dec. 24, 2014 Rise Set
Actual Time
Civil Twilight
Nautical Twilight
Astronomical Twilight
Moon
Length of Visible Light
Length of Day
Tomorrow will be .
, % of the Moon is Illuminated

Today's Extremes

State Highs State Lows

Community

WunderPhotos

Upload Photos

1,780,244 photos uploaded!

WunderBlogs® & News

Nearby

Air Quality

  Air Quality AQ Index Pollutant
Not available.

Snow Depth

Station Depth Elevation

Earthquake Activity

City Distance Mag. Time & Date
Minimum magnitude displayed is 2.5.

Coastal Water Temperatures

Place Temperature

Nearby Weather Stations